Time;durP1;ratioP1;P1;durP2;ratioP2;P2;SDS_P1;SDS_P2;PMS_P1;PMS_P2;Temp;Humidity;BMP_temperature;BMP_pressure;BME280_temperature;BME280_humidity;BME280_pressure;Samples;Min_cycle;Max_cycle;Signal;HPM_P1;HPM_P2
2022/12/23 00:00:11;;;;;;;65.03;19.00;;;;;;;14.14;100.00;100167.56;5119116;28;20276;-60
2022/12/23 00:02:37;;;;;;;58.47;19.27;;;;;;;14.22;100.00;100171.78;5113238;28;20031;-60
2022/12/23 00:05:04;;;;;;;62.55;20.25;;;;;;;13.91;100.00;100165.69;5122327;28;20268;-60
2022/12/23 00:07:30;;;;;;;73.77;20.13;;;;;;;14.15;100.00;100174.59;5119271;28;20028;-59
2022/12/23 00:09:56;;;;;;;60.65;18.58;;;;;;;14.13;100.00;100179.38;5102990;28;20356;-59
2022/12/23 00:15:06;;;;;;;64.77;19.77;;;;;;;14.41;100.00;100179.66;5124593;28;20032;-60
2022/12/23 00:17:43;;;;;;;60.33;19.23;;;;;;;14.39;100.00;100185.31;5122455;28;20261;-60
2022/12/23 00:20:10;;;;;;;;;;;;;;;14.25;100.00;100189.28;5121077;28;20065;-59
2022/12/23 00:25:38;;;;;;;61.33;17.07;;;;;;;14.13;100.00;100195.50;5117967;28;20043;-60
2022/12/23 00:28:10;;;;;;;55.70;16.70;;;;;;;14.23;100.00;100194.94;5119607;28;20296;-59
2022/12/23 00:30:37;;;;;;;47.10;16.13;;;;;;;14.21;100.00;100197.03;5119136;28;20264;-60
2022/12/23 00:33:04;;;;;;;68.13;16.57;;;;;;;13.85;100.00;100204.28;5116274;28;20280;-60
2022/12/23 00:35:31;;;;;;;54.42;14.65;;;;;;;14.04;100.00;100211.19;5116938;28;20271;-59
2022/12/23 00:37:56;;;;;;;56.37;15.67;;;;;;;14.11;100.00;100208.38;5108877;28;20047;-60
2022/12/23 00:43:06;;;;;;;49.97;15.07;;;;;;;14.32;100.00;100214.22;5117621;28;20677;-60
2022/12/23 00:45:32;;;;;;;54.10;15.90;;;;;;;13.97;100.00;100217.72;5118101;28;20272;-60
2022/12/23 00:50:41;;;;;;;53.73;14.73;;;;;;;14.37;100.00;100218.88;5116433;28;20273;-60
2022/12/23 00:53:07;;;;;;;55.80;16.58;;;;;;;14.06;100.00;100216.31;5117784;28;20357;-59
2022/12/23 00:55:33;;;;;;;53.97;15.88;;;;;;;14.33;100.00;100221.22;5119041;28;20100;-59
2022/12/23 00:57:58;;;;;;;56.03;15.80;;;;;;;14.60;100.00;100226.91;5117372;28;20032;-59
2022/12/23 01:05:35;;;;;;;61.57;18.13;;;;;;;14.38;100.00;100225.88;5118041;28;20276;-59
2022/12/23 01:06:00;;;;;;;59.90;19.00;;;;;;;14.48;100.00;100235.00;5118050;28;20292;-60
2022/12/23 01:08:26;;;;;;;52.07;17.23;;;;;;;14.19;100.00;100228.72;5120828;28;20288;-58
2022/12/23 01:10:51;;;;;;;69.07;17.80;;;;;;;14.77;100.00;100232.41;5119387;28;20322;-59
2022/12/23 01:13:18;;;;;;;77.65;19.25;;;;;;;14.43;100.00;100239.47;5104308;28;20039;-59
2022/12/23 01:15:44;;;;;;;66.07;19.42;;;;;;;14.65;100.00;100236.97;5123516;28;20032;-60
2022/12/23 01:18:09;;;;;;;77.90;20.23;;;;;;;14.36;100.00;100230.69;5123852;28;20053;-60
2022/12/23 01:20:39;;;;;;;64.65;20.02;;;;;;;14.27;100.00;100227.53;5115458;28;20028;-60
2022/12/23 01:23:05;;;;;;;64.47;18.37;;;;;;;14.52;100.00;100231.81;5103482;28;20038;-61
2022/12/23 01:25:31;;;;;;;62.97;20.50;;;;;;;14.79;100.00;100231.34;5120701;28;20280;-59
2022/12/23 01:27:57;;;;;;;65.40;20.77;;;;;;;14.38;100.00;100231.25;5123238;28;20051;-60
2022/12/23 01:30:23;;;;;;;71.85;20.23;;;;;;;14.60;100.00;100242.25;5120852;28;20044;-58
2022/12/23 01:32:48;;;;;;;72.65;22.08;;;;;;;14.98;100.00;100237.38;5116405;28;20116;-59
2022/12/23 01:35:14;;;;;;;57.47;18.17;;;;;;;15.03;100.00;100245.53;5103019;28;20073;-60
2022/12/23 01:37:40;;;;;;;66.80;19.48;;;;;;;14.62;100.00;100248.19;5120553;28;20035;-60
2022/12/23 01:40:06;;;;;;;77.97;21.93;;;;;;;14.41;100.00;100250.44;5119986;28;20043;-60
2022/12/23 01:42:45;;;;;;;79.10;21.77;;;;;;;14.79;100.00;100250.19;5117636;28;20024;-58
2022/12/23 01:45:22;;;;;;;66.07;22.37;;;;;;;15.02;100.00;100250.13;5123497;28;20275;-60
2022/12/23 01:47:52;;;;;;;;;;;;;;;14.81;100.00;100258.84;5126290;28;20288;-60
2022/12/23 01:50:23;;;;;;;56.43;18.83;;;;;;;14.66;100.00;100254.75;5118914;28;19912;-59
2022/12/23 01:53:02;;;;;;;80.87;23.50;;;;;;;14.45;100.00;100256.19;5118132;28;20284;-59
2022/12/23 01:55:31;;;;;;;86.07;22.23;;;;;;;14.76;100.00;100265.75;5115091;28;20259;-60
2022/12/23 01:58:09;;;;;;;91.20;24.33;;;;;;;14.79;100.00;100277.09;5118063;28;20321;-58
2022/12/23 02:12:04;;;;;;;86.80;23.33;;;;;;;14.93;100.00;100289.22;5120607;28;20272;-59
2022/12/23 02:17:53;;;;;;;76.00;24.27;;;;;;;14.60;100.00;100294.16;5097543;28;20287;-60
2022/12/23 02:20:37;;;;;;;81.27;22.73;;;;;;;14.53;100.00;100303.41;5114512;28;20292;-59
2022/12/23 02:23:17;;;;;;;84.57;22.10;;;;;;;14.66;100.00;100300.50;5118301;28;20287;-59
2022/12/23 02:25:59;;;;;;;62.73;19.53;;;;;;;14.35;100.00;100307.88;5117701;28;20272;-60
2022/12/23 02:28:54;;;;;;;74.20;21.10;;;;;;;14.69;100.00;100300.00;5115271;28;20314;-60
2022/12/23 02:31:33;;;;;;;61.93;19.70;;;;;;;14.66;100.00;100305.88;5114498;28;20272;-59
2022/12/23 02:34:18;;;;;;;64.20;20.63;;;;;;;14.69;100.00;100310.78;5115008;28;24015;-59
2022/12/23 02:37:04;;;;;;;74.87;20.27;;;;;;;14.58;100.00;100314.31;5115033;28;20283;-60
2022/12/23 02:39:41;;;;;;;67.17;19.13;;;;;;;14.64;100.00;100318.75;5117676;28;20253;-59
2022/12/23 02:42:15;;;;;;;55.13;19.00;;;;;;;14.53;100.00;100317.69;5123729;28;20279;-59
2022/12/23 02:44:58;;;;;;;61.30;17.27;;;;;;;14.54;100.00;100322.03;5123627;28;20265;-60
2022/12/23 02:47:31;;;;;;;48.93;16.80;;;;;;;14.61;100.00;100332.69;5107928;28;20279;-59
2022/12/23 02:50:04;;;;;;;58.97;17.40;;;;;;;14.29;100.00;100335.69;5104535;28;20284;-59
2022/12/23 02:52:33;;;;;;;54.47;19.17;;;;;;;14.39;100.00;100341.31;5118879;28;20292;-59
2022/12/23 02:55:05;;;;;;;59.60;18.73;;;;;;;14.49;100.00;100355.00;5118025;28;20295;-58
2022/12/23 02:57:35;;;;;;;50.67;18.17;;;;;;;14.51;100.00;100359.34;5119876;28;20336;-60
2022/12/23 03:00:02;;;;;;;52.43;17.80;;;;;;;14.57;100.00;100361.91;5113867;28;20308;-58
2022/12/23 03:02:31;;;;;;;47.43;18.20;;;;;;;14.26;100.00;100363.06;5115626;28;20276;-60
2022/12/23 03:04:57;;;;;;;63.67;18.47;;;;;;;14.70;100.00;100371.63;5094316;28;20290;-60
2022/12/23 03:07:45;;;;;;;54.20;17.37;;;;;;;14.28;100.00;100363.63;5113713;28;20269;-60
2022/12/23 03:10:48;;;;;;;69.60;20.23;;;;;;;13.85;100.00;100363.69;5117919;28;20083;-59
2022/12/23 03:13:31;;;;;;;58.70;17.97;;;;;;;13.77;100.00;100363.97;5117236;28;20264;-59
2022/12/23 03:16:21;;;;;;;68.43;18.87;;;;;;;14.10;100.00;100367.25;5114891;28;20284;-59
2022/12/23 03:19:05;;;;;;;67.23;20.13;;;;;;;14.20;100.00;100357.56;5113708;28;20261;-57
2022/12/23 03:22:00;;;;;;;65.40;20.00;;;;;;;14.14;100.00;100358.50;5114520;28;20317;-60
2022/12/23 03:24:46;;;;;;;66.97;22.17;;;;;;;14.14;100.00;100355.81;5116588;28;20269;-61
2022/12/23 03:27:26;;;;;;;61.93;20.07;;;;;;;14.00;100.00;100352.50;5117907;28;20303;-59
2022/12/23 03:30:22;;;;;;;55.60;15.50;;;;;;;14.24;100.00;100351.72;5114619;28;20276;-59
2022/12/23 03:33:06;;;;;;;63.47;17.20;;;;;;;14.19;100.00;100350.53;5097150;28;20292;-60
2022/12/23 03:35:45;;;;;;;49.63;15.43;;;;;;;14.21;100.00;100355.69;5117233;28;20267;-59
2022/12/23 03:38:14;;;;;;;42.40;14.63;;;;;;;14.04;100.00;100355.53;5116995;28;20264;-59
2022/12/23 03:40:43;;;;;;;38.73;13.40;;;;;;;14.27;100.00;100357.44;5119678;28;20260;-60
2022/12/23 03:43:17;;;;;;;45.13;14.57;;;;;;;14.20;100.00;100362.94;5122256;28;20256;-59
2022/12/23 03:45:50;;;;;;;40.30;13.17;;;;;;;14.23;100.00;100356.28;5118012;28;20288;-61
2022/12/23 03:48:34;;;;;;;35.43;12.10;;;;;;;14.18;100.00;100362.34;5118378;28;20304;-60
2022/12/23 03:51:08;;;;;;;36.57;10.63;;;;;;;14.02;100.00;100363.84;5118272;28;20272;-59
2022/12/23 03:53:38;;;;;;;42.00;12.20;;;;;;;14.35;100.00;100364.38;5118437;28;20324;-60
2022/12/23 03:56:12;;;;;;;42.60;12.73;;;;;;;14.26;100.00;100361.19;5118354;28;20272;-59
2022/12/23 03:58:43;;;;;;;30.57;11.20;;;;;;;14.24;100.00;100365.16;5108443;28;20296;-60
2022/12/23 04:01:18;;;;;;;31.83;10.03;;;;;;;14.13;100.00;100372.97;5116885;28;20314;-59
2022/12/23 04:04:16;;;;;;;29.80;10.30;;;;;;;14.33;100.00;100371.84;5120188;28;20267;-59
2022/12/23 04:06:56;;;;;;;28.42;10.30;;;;;;;14.20;100.00;100368.31;5104088;28;20349;-59
2022/12/23 04:09:25;;;;;;;34.20;10.60;;;;;;;14.18;100.00;100372.28;5118655;28;20118;-59
2022/12/23 04:11:51;;;;;;;34.50;11.50;;;;;;;14.02;100.00;100382.66;5122894;28;22752;-60
2022/12/23 04:14:18;;;;;;;36.28;11.45;;;;;;;13.96;100.00;100393.50;5121231;28;20276;-58
2022/12/23 04:16:45;;;;;;;41.13;12.43;;;;;;;14.18;100.00;100397.31;5122042;28;20046;-59
2022/12/23 04:19:10;;;;;;;43.73;13.43;;;;;;;14.06;100.00;100396.44;5117045;28;20264;-59
2022/12/23 04:21:36;;;;;;;52.57;15.10;;;;;;;14.18;100.00;100400.00;5122424;28;20275;-59
2022/12/23 04:24:02;;;;;;;44.55;14.20;;;;;;;14.15;100.00;100403.16;5120421;28;20276;-59
2022/12/23 04:26:27;;;;;;;57.03;15.83;;;;;;;14.15;100.00;100403.16;5120690;28;20039;-59
2022/12/23 04:28:53;;;;;;;49.43;15.33;;;;;;;14.00;100.00;100411.66;5102070;28;20040;-59
2022/12/23 04:31:18;;;;;;;42.55;14.13;;;;;;;14.13;100.00;100404.41;5100284;28;20038;-59
2022/12/23 04:33:44;;;;;;;46.78;16.05;;;;;;;14.01;100.00;100409.75;5115091;28;20028;-59
2022/12/23 04:36:10;;;;;;;44.40;15.30;;;;;;;13.86;100.00;100419.06;5117210;28;20047;-60
2022/12/23 04:38:36;;;;;;;36.97;14.27;;;;;;;13.84;100.00;100412.28;5119362;28;20080;-60
2022/12/23 04:41:01;;;;;;;48.27;15.47;;;;;;;14.10;100.00;100403.03;5119917;28;20096;-59
2022/12/23 04:43:27;;;;;;;46.78;15.45;;;;;;;13.96;100.00;100405.09;5117949;28;20032;-59
2022/12/23 04:45:52;;;;;;;33.05;12.20;;;;;;;14.06;100.00;100404.50;5120825;28;20043;-59
2022/12/23 04:48:18;;;;;;;41.23;14.20;;;;;;;13.89;100.00;100410.56;5118759;28;20046;-58
2022/12/23 04:50:43;;;;;;;39.57;14.10;;;;;;;13.91;100.00;100400.38;5121067;28;20264;-59
2022/12/23 04:53:09;;;;;;;46.08;14.32;;;;;;;13.90;100.00;100398.75;5122657;28;20296;-60
2022/12/23 04:55:34;;;;;;;41.33;14.10;;;;;;;13.79;100.00;100383.38;5100565;28;20071;-61
2022/12/23 04:58:00;;;;;;;38.30;12.73;;;;;;;14.04;100.00;100377.03;5119564;28;20032;-60
2022/12/23 05:00:26;;;;;;;40.63;13.20;;;;;;;13.90;100.00;100393.38;5123771;28;20091;-60
2022/12/23 05:02:52;;;;;;;46.37;14.57;;;;;;;14.08;100.00;100383.63;5116924;28;20268;-60
2022/12/23 05:05:17;;;;;;;44.10;13.77;;;;;;;13.96;100.00;100378.22;5120968;28;20272;-60
2022/12/23 05:07:43;;;;;;;40.35;13.15;;;;;;;13.79;100.00;100387.97;5124440;28;20031;-59
2022/12/23 05:10:09;;;;;;;44.72;13.80;;;;;;;13.96;100.00;100394.34;5122788;28;20040;-58
2022/12/23 05:12:35;;;;;;;41.00;13.48;;;;;;;13.88;100.00;100403.53;5120415;28;20027;-60
2022/12/23 05:15:01;;;;;;;42.83;13.27;;;;;;;13.96;100.00;100394.34;5117296;28;20057;-60
2022/12/23 05:17:26;;;;;;;46.17;13.93;;;;;;;14.08;100.00;100394.38;5122063;28;20032;-59
2022/12/23 05:19:51;;;;;;;43.03;14.27;;;;;;;13.66;100.00;100405.09;5122000;28;20107;-60
2022/12/23 05:22:17;;;;;;;43.25;13.32;;;;;;;13.87;100.00;100409.97;5102319;28;20054;-58
2022/12/23 05:24:43;;;;;;;46.70;15.03;;;;;;;13.91;100.00;100413.81;5120334;28;20063;-60
2022/12/23 05:27:08;;;;;;;44.53;13.63;;;;;;;14.00;100.00;100406.25;5120564;28;20039;-57
2022/12/23 05:29:34;;;;;;;43.03;13.90;;;;;;;14.16;100.00;100430.84;5119652;28;20042;-57
2022/12/23 05:31:59;;;;;;;40.90;13.97;;;;;;;14.24;100.00;100424.31;5083004;28;1029710;-57
2022/12/23 05:34:24;;;;;;;43.00;13.50;;;;;;;13.99;100.00;100430.69;5117843;28;20023;-58
2022/12/23 05:36:50;;;;;;;41.10;13.43;;;;;;;14.11;100.00;100438.78;5119688;28;20032;-59
2022/12/23 05:39:16;;;;;;;36.58;13.73;;;;;;;14.11;100.00;100447.69;5119578;28;20091;-59
2022/12/23 05:41:41;;;;;;;40.30;14.38;;;;;;;13.92;100.00;100441.50;5119128;28;20039;-59
2022/12/23 05:44:07;;;;;;;43.40;14.53;;;;;;;14.00;100.00;100445.75;5122120;28;20039;-60
2022/12/23 05:46:32;;;;;;;39.60;14.60;;;;;;;13.72;100.00;100447.16;5118752;28;20039;-60
2022/12/23 05:48:58;;;;;;;43.90;15.77;;;;;;;13.63;100.00;100443.97;5120193;28;20070;-58
2022/12/23 05:51:23;;;;;;;42.03;14.88;;;;;;;13.98;100.00;100453.22;5118723;28;20064;-57
2022/12/23 05:53:49;;;;;;;44.07;14.83;;;;;;;14.13;100.00;100452.81;5118971;28;20035;-58
2022/12/23 05:56:14;;;;;;;43.10;15.27;;;;;;;14.08;100.00;100450.84;5123459;28;20272;-56
2022/12/23 05:58:39;;;;;;;46.73;17.07;;;;;;;13.96;100.00;100448.09;5116489;28;20069;-58
2022/12/23 06:01:05;;;;;;;49.23;15.23;;;;;;;14.04;100.00;100442.41;5115122;28;20035;-58
2022/12/23 06:03:31;;;;;;;42.50;15.77;;;;;;;14.05;100.00;100435.13;5119649;28;20087;-59
2022/12/23 06:05:56;;;;;;;37.93;14.73;;;;;;;14.30;100.00;100431.47;5119236;28;20063;-56
2022/12/23 06:08:21;;;;;;;44.20;15.27;;;;;;;14.17;100.00;100427.09;5119500;28;20062;-58
2022/12/23 06:10:47;;;;;;;47.63;16.45;;;;;;;14.25;100.00;100418.72;5114376;28;20036;-56
2022/12/23 06:13:13;;;;;;;49.92;16.08;;;;;;;14.18;100.00;100408.06;5117239;28;20035;-57
2022/12/23 06:15:38;;;;;;;41.47;14.38;;;;;;;14.17;100.00;100406.44;5119952;28;20028;-57
2022/12/23 06:18:04;;;;;;;42.97;15.27;;;;;;;14.17;100.00;100400.22;5123288;28;20119;-58
2022/12/23 06:20:29;;;;;;;55.30;16.77;;;;;;;14.34;100.00;100403.06;5118123;28;20031;-57
2022/12/23 06:22:55;;;;;;;52.70;18.30;;;;;;;14.36;100.00;100400.97;5119686;28;20036;-57
2022/12/23 06:25:20;;;;;;;52.58;15.93;;;;;;;14.42;100.00;100402.72;5119423;28;20036;-59
2022/12/23 06:27:46;;;;;;;60.33;17.80;;;;;;;14.29;100.00;100393.00;5123299;28;20028;-57
2022/12/23 06:30:12;;;;;;;60.40;18.07;;;;;;;14.35;100.00;100404.72;5119875;28;20328;-58
2022/12/23 06:32:38;;;;;;;49.03;17.27;;;;;;;14.42;100.00;100407.31;5121202;28;20366;-56
2022/12/23 06:35:04;;;;;;;64.15;16.83;;;;;;;14.42;100.00;100407.31;5123748;28;20035;-58
2022/12/23 06:37:29;;;;;;;54.00;17.15;;;;;;;14.51;100.00;100405.06;5119565;28;20028;-58
2022/12/23 06:39:55;;;;;;;54.33;15.65;;;;;;;14.26;100.00;100408.78;5118802;28;20016;-58
2022/12/23 06:42:20;;;;;;;52.38;16.05;;;;;;;14.25;100.00;100407.13;5114370;28;20028;-56
2022/12/23 06:44:46;;;;;;;53.97;15.83;;;;;;;14.25;100.00;100407.13;5120368;28;20036;-56
2022/12/23 06:47:11;;;;;;;47.47;15.40;;;;;;;14.27;100.00;100416.63;5126060;28;20067;-55
2022/12/23 06:49:37;;;;;;;53.38;16.30;;;;;;;14.28;100.00;100428.19;5119031;28;20032;-56
2022/12/23 06:52:03;;;;;;;48.60;16.77;;;;;;;14.23;100.00;100425.38;5119246;28;20043;-59
2022/12/23 06:54:29;;;;;;;52.88;16.35;;;;;;;14.15;100.00;100446.19;5121681;28;20039;-58
2022/12/23 06:56:54;;;;;;;58.88;17.27;;;;;;;14.03;100.00;100448.81;5116110;28;20036;-56
2022/12/23 06:59:20;;;;;;;58.10;17.20;;;;;;;14.12;100.00;100446.63;5116014;28;20074;-58
2022/12/23 07:01:46;;;;;;;49.58;16.92;;;;;;;14.21;100.00;100449.81;5115607;28;20058;-57
2022/12/23 07:04:11;;;;;;;53.92;18.48;;;;;;;14.26;100.00;100458.03;5120216;28;20044;-57
2022/12/23 07:06:38;;;;;;;69.43;18.13;;;;;;;14.21;100.00;100449.81;5119534;28;20040;-55
2022/12/23 07:09:03;;;;;;;62.38;17.05;;;;;;;14.25;100.00;100463.63;5120366;28;20044;-55
2022/12/23 07:11:29;;;;;;;61.60;19.60;;;;;;;14.12;100.00;100473.53;5118088;28;20042;-57
2022/12/23 07:13:54;;;;;;;54.92;17.35;;;;;;;13.68;100.00;100470.16;5117005;28;20028;-56
2022/12/23 07:16:20;;;;;;;62.67;18.03;;;;;;;13.48;100.00;100465.84;5117511;28;20035;-57
2022/12/23 07:18:45;;;;;;;84.70;19.97;;;;;;;13.79;100.00;100460.53;5113245;28;20267;-57
2022/12/23 07:21:11;;;;;;;88.80;21.70;;;;;;;13.89;100.00;100456.25;5115913;28;20040;-58
2022/12/23 07:23:36;;;;;;;73.40;18.85;;;;;;;13.97;100.00;100456.97;5119208;28;20055;-54
2022/12/23 07:26:02;;;;;;;70.27;20.03;;;;;;;14.01;100.00;100466.22;5119884;28;20031;-58
2022/12/23 07:28:27;;;;;;;71.53;19.97;;;;;;;13.99;100.00;100471.00;5115117;28;20387;-56
2022/12/23 07:30:53;;;;;;;64.10;18.87;;;;;;;13.95;100.00;100472.50;5118807;28;20264;-57
2022/12/23 07:33:18;;;;;;;79.23;20.50;;;;;;;14.09;100.00;100476.69;5119072;28;20279;-56
2022/12/23 07:35:44;;;;;;;81.88;22.10;;;;;;;14.12;100.00;100468.16;5119117;28;20058;-58
2022/12/23 07:38:09;;;;;;;68.55;18.77;;;;;;;13.89;100.00;100458.94;5116612;28;20032;-57
2022/12/23 07:40:35;;;;;;;65.77;18.53;;;;;;;13.86;100.00;100459.41;5113340;28;20044;-56
2022/12/23 07:43:00;;;;;;;67.25;19.90;;;;;;;14.12;100.00;100462.78;5116063;28;20039;-57
2022/12/23 07:45:28;;;;;;;71.17;18.60;;;;;;;13.84;100.00;100452.59;5118873;28;20036;-56
2022/12/23 07:47:55;;;;;;;73.03;19.33;;;;;;;13.86;100.00;100450.50;5116687;28;20040;-58
2022/12/23 07:50:21;;;;;;;89.27;21.87;;;;;;;13.93;100.00;100439.66;5118657;28;20261;-56
2022/12/23 07:52:47;;;;;;;82.93;21.77;;;;;;;13.54;100.00;100450.69;5097496;28;20277;-52
2022/12/23 07:55:12;;;;;;;90.82;20.58;;;;;;;13.73;100.00;100443.44;5119293;28;20032;-57
2022/12/23 07:57:39;;;;;;;80.38;20.85;;;;;;;13.86;100.00;100440.56;5118833;28;20031;-57
2022/12/23 08:00:09;;;;;;;83.47;20.48;;;;;;;13.70;100.00;100449.25;5118863;28;20062;-57
2022/12/23 08:02:37;;;;;;;80.53;19.80;;;;;;;13.90;100.00;100457.06;5118088;28;20083;-56
2022/12/23 08:05:03;;;;;;;76.30;20.67;;;;;;;13.69;100.00;100458.38;5118744;28;20287;-56
2022/12/23 08:07:28;;;;;;;95.45;20.23;;;;;;;13.97;100.00;100457.81;5117980;28;20232;-57
2022/12/23 08:09:54;;;;;;;71.95;21.30;;;;;;;14.21;100.00;100444.44;5115198;28;20034;-55
2022/12/23 08:12:19;;;;;;;78.47;22.77;;;;;;;14.36;100.00;100444.00;5121688;28;20031;-54
2022/12/23 08:14:47;;;;;;;83.93;21.30;;;;;;;14.46;100.00;100446.94;5116979;28;20348;-56
2022/12/23 08:17:13;;;;;;;82.03;19.57;;;;;;;14.39;100.00;100451.63;5113550;28;20034;-54
2022/12/23 08:19:38;;;;;;;72.57;20.08;;;;;;;14.17;100.00;100454.84;5119625;28;20260;-54
2022/12/23 08:22:03;;;;;;;73.77;21.30;;;;;;;14.32;100.00;100442.84;5096116;28;20066;-54
2022/12/23 08:24:29;;;;;;;82.63;20.33;;;;;;;14.53;100.00;100429.88;5119562;28;20039;-56
2022/12/23 08:26:56;;;;;;;87.30;21.50;;;;;;;14.45;100.00;100426.47;5118488;28;20035;-57
2022/12/23 08:29:21;;;;;;;88.30;21.17;;;;;;;14.24;100.00;100421.63;5118302;28;20040;-55
2022/12/23 08:31:49;;;;;;;73.03;19.73;;;;;;;14.27;100.00;100415.78;5118653;28;20311;-55
2022/12/23 08:34:14;;;;;;;73.33;19.43;;;;;;;14.45;100.00;100407.66;5117949;28;20028;-57
2022/12/23 08:36:39;;;;;;;74.57;20.10;;;;;;;14.43;100.00;100404.38;5121048;28;20280;-55
2022/12/23 08:39:07;;;;;;;63.13;18.33;;;;;;;14.48;100.00;100428.69;5120286;28;20272;-55
2022/12/23 08:41:37;;;;;;;91.53;23.27;;;;;;;14.53;100.00;100411.88;5118175;28;20077;-58
2022/12/23 08:44:03;;;;;;;72.40;21.97;;;;;;;14.42;100.00;100413.50;5117791;28;20273;-58
2022/12/23 08:46:29;;;;;;;85.10;21.42;;;;;;;14.53;100.00;100414.56;5122596;28;20335;-59
2022/12/23 08:48:55;;;;;;;102.43;24.27;;;;;;;14.55;100.00;100408.97;5120016;28;20032;-56
2022/12/23 08:51:22;;;;;;;67.80;22.40;;;;;;;14.65;100.00;100405.66;5120321;28;20260;-57
2022/12/23 08:53:49;;;;;;;95.23;22.47;;;;;;;14.49;100.00;100408.81;5128189;28;20028;-58
2022/12/23 08:56:20;;;;;;;68.00;21.30;;;;;;;14.51;100.00;100405.06;5120528;28;20268;-57
2022/12/23 08:58:48;;;;;;;68.90;19.17;;;;;;;14.38;100.00;100401.56;5123349;28;20050;-56
2022/12/23 09:01:16;;;;;;;70.63;20.67;;;;;;;14.49;100.00;100398.06;5120147;28;20359;-57
2022/12/23 09:03:42;;;;;;;61.23;20.60;;;;;;;14.65;100.00;100389.50;5113755;28;20298;-58
2022/12/23 09:06:39;;;;;;;70.35;22.50;;;;;;;14.57;100.00;100394.19;5122602;28;20276;-57
2022/12/23 09:09:05;;;;;;;59.07;20.40;;;;;;;14.65;100.00;100386.81;5115127;28;20067;-58
2022/12/23 09:11:31;;;;;;;54.63;18.30;;;;;;;14.64;100.00;100383.34;5117086;28;20272;-57
2022/12/23 09:13:58;;;;;;;59.83;20.00;;;;;;;14.69;100.00;100380.75;5116556;28;20048;-58
2022/12/23 09:16:24;;;;;;;61.03;20.20;;;;;;;14.72;100.00;100369.53;5115281;28;20047;-57
2022/12/23 09:18:49;;;;;;;59.00;20.73;;;;;;;14.67;100.00;100368.59;5117690;28;20261;-59
2022/12/23 09:21:18;;;;;;;49.38;20.42;;;;;;;13.87;100.00;100368.81;5117461;28;20031;-58
2022/12/23 09:23:44;;;;;;;72.90;23.27;;;;;;;14.35;100.00;100377.81;5114390;28;20038;-59
2022/12/23 09:26:17;;;;;;;72.50;23.40;;;;;;;14.29;100.00;100378.72;5118666;28;20299;-58
2022/12/23 09:28:43;;;;;;;79.90;23.40;;;;;;;14.43;100.00;100382.03;5111524;28;20037;-56
2022/12/23 09:31:10;;;;;;;86.97;26.40;;;;;;;14.31;100.00;100372.06;5114049;28;20287;-58
2022/12/23 09:33:37;;;;;;;90.27;26.07;;;;;;;14.58;100.00;100362.75;5117338;28;20054;-56
2022/12/23 09:36:03;;;;;;;;;;;;;;;14.52;100.00;100366.34;5113240;28;20273;-58
2022/12/23 09:38:28;;;;;;;81.20;27.10;;;;;;;14.39;100.00;100360.16;5118942;28;19912;-59
2022/12/23 09:41:02;;;;;;;90.15;25.80;;;;;;;14.62;100.00;100358.53;5116956;28;20051;-59
2022/12/23 09:43:51;;;;;;;83.67;25.00;;;;;;;14.39;100.00;100354.78;5116327;28;20036;-58
2022/12/23 09:46:21;;;;;;;88.37;27.73;;;;;;;14.45;100.00;100353.84;5109076;28;20287;-57
2022/12/23 09:49:01;;;;;;;102.33;31.27;;;;;;;14.44;100.00;100343.31;5113032;28;20276;-55
2022/12/23 09:51:28;;;;;;;99.50;32.40;;;;;;;14.61;100.00;100338.84;5114903;28;20268;-59
2022/12/23 09:54:06;;;;;;;89.70;29.50;;;;;;;14.76;100.00;100338.44;5114763;28;20290;-58
2022/12/23 09:56:45;;;;;;;99.57;28.73;;;;;;;14.77;100.00;100323.94;5114959;28;20073;-58
2022/12/23 09:59:25;;;;;;;99.50;29.67;;;;;;;14.61;100.00;100319.22;5116688;28;20325;-57
2022/12/23 10:02:02;;;;;;;85.57;28.10;;;;;;;14.42;100.00;100323.91;5116128;28;20264;-54
2022/12/23 10:04:33;;;;;;;99.18;28.85;;;;;;;14.42;100.00;100316.66;5113858;28;20279;-55
2022/12/23 10:07:04;;;;;;;99.33;28.43;;;;;;;14.48;100.00;100313.00;5114612;28;20028;-59
2022/12/23 10:09:34;;;;;;;103.57;31.70;;;;;;;14.48;100.00;100302.25;5112836;28;20272;-56
2022/12/23 10:12:23;;;;;;;104.37;30.40;;;;;;;14.32;100.00;100298.41;5115476;28;20272;-52
2022/12/23 10:14:51;;;;;;;102.63;33.03;;;;;;;14.12;100.00;100306.81;5105457;28;20330;-58
2022/12/23 10:17:26;;;;;;;110.87;33.33;;;;;;;14.47;100.00;100310.56;5119364;28;20268;-57
2022/12/23 10:19:55;;;;;;;113.80;34.13;;;;;;;14.52;100.00;100307.16;5119648;28;20283;-57
2022/12/23 10:22:31;;;;;;;126.73;34.67;;;;;;;14.44;100.00;100298.41;5113533;28;20256;-57
2022/12/23 10:24:59;;;;;;;127.57;34.03;;;;;;;14.45;100.00;100294.66;5116685;28;20268;-55
2022/12/23 10:27:38;;;;;;;127.77;37.03;;;;;;;14.29;100.00;100289.97;5114694;28;20047;-55
2022/12/23 10:30:17;;;;;;;144.37;37.63;;;;;;;14.32;100.00;100284.94;5114102;28;20281;-56
2022/12/23 10:32:56;;;;;;;145.80;39.77;;;;;;;14.48;100.00;100277.22;5118618;28;20273;-57
2022/12/23 10:35:44;;;;;;;145.10;37.63;;;;;;;14.33;100.00;100285.78;5116069;28;20271;-58
2022/12/23 10:38:28;;;;;;;149.73;38.78;;;;;;;14.42;100.00;100278.19;5116149;28;20288;-56
2022/12/23 10:41:04;;;;;;;136.53;39.17;;;;;;;14.29;100.00;100276.53;5115918;28;20045;-57
2022/12/23 10:43:55;;;;;;;130.23;35.90;;;;;;;13.96;100.00;100264.47;5114674;28;20269;-56
2022/12/23 10:46:44;;;;;;;139.57;36.77;;;;;;;14.18;100.00;100262.03;5112274;28;20264;-57
2022/12/23 10:49:19;;;;;;;145.97;38.77;;;;;;;14.26;100.00;100263.53;5112812;28;20280;-53
2022/12/23 10:51:49;;;;;;;151.70;38.43;;;;;;;14.31;100.00;100258.31;5112545;28;20268;-53
2022/12/23 10:54:29;;;;;;;142.10;38.17;;;;;;;14.13;100.00;100270.81;5115035;28;20265;-53
2022/12/23 10:56:54;;;;;;;149.33;39.47;;;;;;;14.15;100.00;100267.88;5110339;28;20329;-55
2022/12/23 10:59:26;;;;;;;145.97;38.17;;;;;;;14.10;100.00;100259.69;5113630;28;20272;-57
2022/12/23 11:02:00;;;;;;;150.60;37.23;;;;;;;14.26;100.00;100250.09;5115816;28;20028;-56
2022/12/23 11:04:34;;;;;;;120.23;33.33;;;;;;;13.56;100.00;100249.78;5116187;28;20277;-53
2022/12/23 11:07:01;;;;;;;164.03;36.87;;;;;;;13.89;100.00;100249.28;5115431;28;20308;-55
2022/12/23 11:09:37;;;;;;;127.80;35.00;;;;;;;13.83;100.00;100244.81;5113627;28;20303;-58
2022/12/23 11:12:08;;;;;;;129.27;34.27;;;;;;;13.57;100.00;100236.13;5114228;28;20263;-55
2022/12/23 11:14:38;;;;;;;118.93;32.03;;;;;;;13.81;100.00;100236.16;5116415;28;20303;-57
2022/12/23 11:17:16;;;;;;;110.63;31.60;;;;;;;14.04;100.00;100230.00;5114420;28;20303;-59
2022/12/23 11:19:41;;;;;;;119.67;31.47;;;;;;;14.30;100.00;100227.06;5117326;28;20283;-59
2022/12/23 11:22:20;;;;;;;163.83;33.63;;;;;;;14.41;100.00;100237.00;5118397;28;20348;-59
2022/12/23 11:24:45;;;;;;;116.40;29.73;;;;;;;14.17;100.00;100234.31;5113997;28;20065;-60
2022/12/23 11:27:14;;;;;;;95.95;27.67;;;;;;;14.25;100.00;100226.94;5117410;28;20276;-59
2022/12/23 11:29:48;;;;;;;114.00;26.80;;;;;;;14.42;100.00;100229.75;5120355;28;20056;-60
2022/12/23 11:32:27;;;;;;;94.90;27.97;;;;;;;13.99;100.00;100221.00;5115640;28;20305;-59
2022/12/23 11:34:55;;;;;;;90.30;26.40;;;;;;;14.07;100.00;100206.38;5120591;28;20849;-58
2022/12/23 11:37:23;;;;;;;77.60;25.23;;;;;;;13.89;100.00;100200.91;5118539;28;20273;-58
2022/12/23 11:39:49;;;;;;;112.03;27.17;;;;;;;13.72;100.00;100195.38;5103833;28;20269;-58
2022/12/23 11:42:18;;;;;;;81.73;24.50;;;;;;;13.86;100.00;100198.69;5113935;28;20276;-57